Time;durP1;ratioP1;P1;durP2;ratioP2;P2;SDS_P1;SDS_P2;PMS_P1;PMS_P2;Temp;Humidity;BMP_temperature;BMP_pressure;BME280_temperature;BME280_humidity;BME280_pressure;Samples;Min_cycle;Max_cycle;Signal;HPM_P1;HPM_P2
2021/07/29 00:01:02;;;;;;;4.72;3.08;;;27.30;54.70;;;;;;4991231;28;20480;-45
2021/07/29 00:03:28;;;;;;;4.03;2.60;;;27.20;54.90;;;;;;4974254;28;20026;-46
2021/07/29 00:05:53;;;;;;;3.92;2.50;;;27.20;55.00;;;;;;4990946;28;20054;-43
2021/07/29 00:08:20;;;;;;;3.28;2.40;;;27.20;55.10;;;;;;4991779;28;20026;-44
2021/07/29 00:10:47;;;;;;;3.95;2.75;;;27.10;55.30;;;;;;4991940;28;20034;-49
2021/07/29 00:13:13;;;;;;;5.93;2.75;;;27.10;55.40;;;;;;4991541;28;20026;-48
2021/07/29 00:15:39;;;;;;;3.45;2.65;;;27.00;55.20;;;;;;4991547;28;20026;-46
2021/07/29 00:20:30;;;;;;;3.55;2.60;;;27.00;55.40;;;;;;4991916;28;20144;-43
2021/07/29 00:23:01;;;;;;;3.40;2.60;;;27.00;55.70;;;;;;4991411;28;20058;-44
2021/07/29 00:25:28;;;;;;;3.00;2.70;;;26.90;55.90;;;;;;4991555;28;20023;-43
2021/07/29 00:27:55;;;;;;;4.20;2.83;;;26.80;56.10;;;;;;4991804;28;20035;-47
2021/07/29 00:30:23;;;;;;;5.07;2.58;;;26.70;56.50;;;;;;4991656;28;20026;-43
2021/07/29 00:32:54;;;;;;;4.15;2.90;;;26.60;56.60;;;;;;4991717;28;20031;-44
2021/07/29 00:35:21;;;;;;;3.83;2.65;;;26.60;56.50;;;;;;4991473;28;20029;-44
2021/07/29 00:37:49;;;;;;;3.17;2.40;;;26.60;56.70;;;;;;4991522;28;20484;-44
2021/07/29 00:40:16;;;;;;;3.67;2.88;;;26.50;56.90;;;;;;4990985;28;20371;-44
2021/07/29 00:42:42;;;;;;;5.07;2.60;;;26.50;56.90;;;;;;4991754;28;20038;-45
2021/07/29 00:45:08;;;;;;;4.38;2.60;;;26.40;57.00;;;;;;4990875;28;20030;-46
2021/07/29 00:47:39;;;;;;;3.28;2.40;;;26.50;56.90;;;;;;4991455;28;20033;-46
2021/07/29 00:50:06;;;;;;;2.80;2.42;;;26.50;56.90;;;;;;4991194;28;20037;-47
2021/07/29 00:52:32;;;;;;;3.38;2.50;;;26.50;56.70;;;;;;4991682;28;20045;-46
2021/07/29 00:54:58;;;;;;;2.80;2.30;;;26.60;56.60;;;;;;4990897;28;20026;-49
2021/07/29 00:57:24;;;;;;;2.78;2.40;;;26.60;56.30;;;;;;4973837;28;20073;-45
2021/07/29 00:59:50;;;;;;;4.80;2.60;;;26.60;56.00;;;;;;4991486;28;20038;-49
2021/07/29 01:02:16;;;;;;;3.40;2.78;;;26.70;55.90;;;;;;4973083;28;20231;-46
2021/07/29 01:04:43;;;;;;;3.80;2.40;;;26.80;55.70;;;;;;4991217;28;20066;-45
2021/07/29 01:07:09;;;;;;;3.25;2.30;;;26.80;55.40;;;;;;4990678;28;20019;-46
2021/07/29 01:09:35;;;;;;;3.58;2.40;;;26.90;55.20;;;;;;4991382;28;20484;-46
2021/07/29 01:12:00;;;;;;;2.40;1.92;;;26.90;54.90;;;;;;4991450;28;20030;-48
2021/07/29 01:14:26;;;;;;;3.00;2.20;;;26.90;54.80;;;;;;4994519;28;20466;-44
2021/07/29 01:16:51;;;;;;;3.03;2.30;;;27.00;54.70;;;;;;4977350;28;20054;-51
2021/07/29 01:19:20;;;;;;;3.95;2.35;;;27.00;54.50;;;;;;4994035;28;20027;-47
2021/07/29 01:21:45;;;;;;;3.80;2.50;;;27.10;54.30;;;;;;4994400;28;20081;-49
2021/07/29 01:24:11;;;;;;;3.15;2.15;;;27.20;54.10;;;;;;4976262;28;20042;-46
2021/07/29 01:26:37;;;;;;;3.78;2.38;;;27.20;54.00;;;;;;4977188;28;20138;-44
2021/07/29 01:29:02;;;;;;;3.75;2.17;;;27.20;53.80;;;;;;4976764;28;20037;-44
2021/07/29 01:31:28;;;;;;;2.97;2.30;;;27.30;53.60;;;;;;4994498;28;20214;-47
2021/07/29 01:33:55;;;;;;;2.65;2.08;;;27.30;53.60;;;;;;4994626;28;20421;-44
2021/07/29 01:36:21;;;;;;;4.38;2.13;;;27.30;53.30;;;;;;4993984;28;20022;-46
2021/07/29 01:38:47;;;;;;;3.25;2.10;;;27.40;53.30;;;;;;4994161;28;20477;-48
2021/07/29 01:41:13;;;;;;;2.97;2.50;;;27.40;53.30;;;;;;4993540;28;20049;-47
2021/07/29 01:43:39;;;;;;;4.47;2.47;;;27.40;53.20;;;;;;4994147;28;20077;-44
2021/07/29 01:46:04;;;;;;;3.30;2.20;;;27.40;53.20;;;;;;4993986;28;20057;-45
2021/07/29 01:48:31;;;;;;;5.00;2.22;;;27.30;53.00;;;;;;4994234;28;20401;-44
2021/07/29 01:50:58;;;;;;;4.88;2.47;;;27.40;53.00;;;;;;4994036;28;20528;-45
2021/07/29 01:53:23;;;;;;;3.30;2.58;;;27.40;52.90;;;;;;4976621;28;20022;-45
2021/07/29 01:55:50;;;;;;;3.17;2.28;;;27.40;52.80;;;;;;4994122;28;20030;-49
2021/07/29 01:58:17;;;;;;;4.97;2.72;;;27.40;52.60;;;;;;4993472;28;20037;-45
2021/07/29 02:00:48;;;;;;;3.28;2.30;;;27.40;52.40;;;;;;4993592;28;20038;-46
2021/07/29 02:03:14;;;;;;;7.00;2.90;;;27.40;52.30;;;;;;4974400;28;20022;-43
2021/07/29 02:05:40;;;;;;;2.78;2.13;;;27.40;52.30;;;;;;4993295;28;20053;-44
2021/07/29 02:08:06;;;;;;;3.35;2.38;;;27.40;52.20;;;;;;4959482;28;20153;-46
2021/07/29 02:10:32;;;;;;;3.88;2.50;;;27.40;52.30;;;;;;4993647;28;20045;-46
2021/07/29 02:12:58;;;;;;;3.25;2.45;;;27.40;52.30;;;;;;4993750;28;20136;-48
2021/07/29 02:15:25;;;;;;;5.70;3.08;;;27.30;52.10;;;;;;4994047;28;20527;-46
2021/07/29 02:17:55;;;;;;;7.50;5.07;;;27.30;52.30;;;;;;4976261;28;20445;-44
2021/07/29 02:20:21;;;;;;;9.77;7.32;;;27.30;52.50;;;;;;4993141;28;20453;-45
2021/07/29 02:22:46;;;;;;;11.15;7.93;;;27.30;52.40;;;;;;4993876;28;20097;-47
2021/07/29 02:25:12;;;;;;;10.75;7.80;;;27.30;52.20;;;;;;4992772;28;20528;-45
2021/07/29 02:27:38;;;;;;;8.77;6.82;;;27.30;51.90;;;;;;4993591;28;20026;-48
2021/07/29 02:30:04;;;;;;;9.45;6.85;;;27.40;51.80;;;;;;4993358;28;20026;-49
2021/07/29 02:32:30;;;;;;;5.95;4.47;;;27.40;51.90;;;;;;4975898;28;20053;-46
2021/07/29 02:34:56;;;;;;;5.88;4.65;;;27.50;51.50;;;;;;4993790;28;20080;-45
2021/07/29 02:37:22;;;;;;;5.50;4.20;;;27.50;51.30;;;;;;4992430;28;20026;-45
2021/07/29 02:39:48;;;;;;;3.83;3.00;;;27.50;51.10;;;;;;4993368;28;20485;-51
2021/07/29 02:42:14;;;;;;;5.07;3.78;;;27.50;50.80;;;;;;4992731;28;20109;-49
2021/07/29 02:44:40;;;;;;;4.57;3.42;;;27.50;50.80;;;;;;4993119;28;20109;-47
2021/07/29 02:47:06;;;;;;;3.45;2.70;;;27.50;50.80;;;;;;4992328;28;20057;-46
2021/07/29 02:49:32;;;;;;;5.15;3.60;;;27.50;50.70;;;;;;4975791;28;20042;-47
2021/07/29 02:51:57;;;;;;;5.57;2.60;;;27.40;50.80;;;;;;4993048;28;20469;-46
2021/07/29 02:54:23;;;;;;;3.30;2.72;;;27.40;50.70;;;;;;4975024;28;20049;-44
2021/07/29 02:56:49;;;;;;;3.47;2.60;;;27.40;50.80;;;;;;4975561;28;20022;-47
2021/07/29 02:59:15;;;;;;;3.47;2.58;;;27.40;50.80;;;;;;4992454;28;20019;-51
2021/07/29 03:01:40;;;;;;;3.75;2.60;;;27.40;50.70;;;;;;4975475;28;20081;-47
2021/07/29 03:04:06;;;;;;;2.80;2.20;;;27.40;50.70;;;;;;4992270;28;20033;-46
2021/07/29 03:06:32;;;;;;;3.95;2.42;;;27.40;50.50;;;;;;4992859;28;20085;-47
2021/07/29 03:09:02;;;;;;;3.65;2.20;;;27.30;50.40;;;;;;4992753;28;20037;-49
2021/07/29 03:11:28;;;;;;;2.90;1.92;;;27.30;50.60;;;;;;4992691;28;20097;-49
2021/07/29 03:13:54;;;;;;;3.03;2.05;;;27.30;50.50;;;;;;4992536;28;20470;-51
2021/07/29 03:16:20;;;;;;;3.90;3.03;;;27.30;50.80;;;;;;4992051;28;20022;-47
2021/07/29 03:18:46;;;;;;;9.30;4.65;;;27.20;50.80;;;;;;4992617;28;20034;-45
2021/07/29 03:21:12;;;;;;;5.93;4.65;;;27.20;50.80;;;;;;4991879;28;20474;-49
2021/07/29 03:23:38;;;;;;;6.95;3.97;;;27.20;50.60;;;;;;4992388;28;20433;-45
2021/07/29 03:26:04;;;;;;;8.27;4.10;;;27.20;50.70;;;;;;4991988;28;20022;-46
2021/07/29 03:28:30;;;;;;;5.68;3.42;;;27.20;50.70;;;;;;4992696;28;20084;-46
2021/07/29 03:30:56;;;;;;;3.85;3.30;;;27.20;50.50;;;;;;4992524;28;20034;-46
2021/07/29 03:33:22;;;;;;;7.63;3.65;;;27.30;50.50;;;;;;4991810;28;20034;-48
2021/07/29 03:35:48;;;;;;;5.00;3.08;;;27.20;50.60;;;;;;4974413;28;20145;-47
2021/07/29 03:38:14;;;;;;;3.38;2.80;;;27.20;50.70;;;;;;4974071;28;20377;-45
2021/07/29 03:40:40;;;;;;;5.90;3.08;;;27.30;50.60;;;;;;4974747;28;20042;-48
2021/07/29 03:43:07;;;;;;;3.45;2.70;;;27.30;50.50;;;;;;4991659;28;20022;-45
2021/07/29 03:45:35;;;;;;;4.60;3.20;;;27.30;50.60;;;;;;4989992;28;20022;-48
2021/07/29 03:48:02;;;;;;;6.72;4.13;;;27.30;50.60;;;;;;4991899;28;20106;-49
2021/07/29 03:50:28;;;;;;;7.82;4.80;;;27.30;50.60;;;;;;4992135;28;20057;-47
2021/07/29 03:52:54;;;;;;;5.70;4.05;;;27.30;50.50;;;;;;4992195;28;20034;-45
2021/07/29 03:55:20;;;;;;;6.68;4.85;;;27.30;50.50;;;;;;4974246;28;20029;-49
2021/07/29 03:57:46;;;;;;;8.82;4.00;;;27.40;50.50;;;;;;4992025;28;20397;-46
2021/07/29 04:00:13;;;;;;;5.38;3.90;;;27.40;50.40;;;;;;4991502;28;20041;-46
2021/07/29 04:02:39;;;;;;;6.53;3.30;;;27.40;50.40;;;;;;4992222;28;20050;-49
2021/07/29 04:05:06;;;;;;;6.63;3.55;;;27.40;50.30;;;;;;4973910;28;20161;-48
2021/07/29 04:07:33;;;;;;;6.53;3.90;;;27.40;50.30;;;;;;4991605;28;20050;-47
2021/07/29 04:09:59;;;;;;;5.82;4.70;;;27.30;50.40;;;;;;4992065;28;20045;-46
2021/07/29 04:12:24;;;;;;;5.85;4.53;;;27.30;50.50;;;;;;4991353;28;20026;-46
2021/07/29 04:14:50;;;;;;;7.32;5.50;;;27.30;50.60;;;;;;4974682;28;20053;-45
2021/07/29 04:17:17;;;;;;;7.22;4.80;;;27.30;50.60;;;;;;4991208;28;20030;-47
2021/07/29 04:19:44;;;;;;;9.27;6.20;;;27.30;50.60;;;;;;4992104;28;20110;-50
2021/07/29 04:22:09;;;;;;;8.15;5.10;;;27.20;50.60;;;;;;4990943;28;20023;-49
2021/07/29 04:24:35;;;;;;;9.20;5.70;;;27.30;50.60;;;;;;4991747;28;20026;-45
2021/07/29 04:27:02;;;;;;;8.32;6.03;;;27.30;50.50;;;;;;4991844;28;20080;-45
2021/07/29 04:29:31;;;;;;;7.20;5.43;;;27.20;50.70;;;;;;4973589;28;20026;-50
2021/07/29 04:31:58;;;;;;;8.07;5.63;;;27.30;50.60;;;;;;4991634;28;20057;-47
2021/07/29 04:34:23;;;;;;;7.30;4.60;;;27.30;50.60;;;;;;4990770;28;20523;-45
2021/07/29 04:36:49;;;;;;;6.45;4.60;;;27.30;50.50;;;;;;4991552;28;20101;-45
2021/07/29 04:39:15;;;;;;;5.97;3.55;;;27.30;50.40;;;;;;4991011;28;20061;-47
2021/07/29 04:41:42;;;;;;;6.40;4.80;;;27.40;50.40;;;;;;4974203;28;20043;-48
2021/07/29 04:44:09;;;;;;;5.78;4.32;;;27.30;50.40;;;;;;4990774;28;20473;-46
2021/07/29 04:46:36;;;;;;;7.43;3.10;;;27.30;50.40;;;;;;4974139;28;20046;-50
2021/07/29 04:49:03;;;;;;;4.72;3.25;;;27.30;50.40;;;;;;4995384;28;20096;-45
2021/07/29 04:51:29;;;;;;;6.20;3.75;;;27.30;50.50;;;;;;4994293;28;20596;-51
2021/07/29 04:53:54;;;;;;;4.97;3.53;;;27.30;50.50;;;;;;4995348;28;20044;-49
2021/07/29 04:56:20;;;;;;;7.03;4.70;;;27.40;50.50;;;;;;4993986;28;20413;-47
2021/07/29 04:58:49;;;;;;;7.00;4.20;;;27.40;50.50;;;;;;4995089;28;20373;-48
2021/07/29 05:01:15;;;;;;;6.95;4.30;;;27.40;50.50;;;;;;4994436;28;20044;-48
2021/07/29 05:03:40;;;;;;;4.72;3.70;;;27.40;50.40;;;;;;4995403;28;20034;-52
2021/07/29 05:06:06;;;;;;;5.10;3.70;;;27.40;50.40;;;;;;4994429;28;20046;-48
2021/07/29 05:08:32;;;;;;;9.75;3.83;;;27.40;50.40;;;;;;4994883;28;20097;-48
2021/07/29 05:10:58;;;;;;;5.25;3.40;;;27.40;50.40;;;;;;4995253;28;20038;-45
2021/07/29 05:13:23;;;;;;;6.90;3.83;;;27.40;50.40;;;;;;4994396;28;20070;-46
2021/07/29 05:15:49;;;;;;;4.95;3.22;;;27.40;50.30;;;;;;4995080;28;20118;-47
2021/07/29 05:18:14;;;;;;;5.70;3.70;;;27.50;50.40;;;;;;4993905;28;20026;-47
2021/07/29 05:20:40;;;;;;;6.57;3.40;;;27.50;50.40;;;;;;4994244;28;20042;-46
2021/07/29 05:23:06;;;;;;;8.18;3.95;;;27.50;50.40;;;;;;4976909;28;20080;-46
2021/07/29 05:25:35;;;;;;;5.10;3.05;;;27.50;50.40;;;;;;4994413;28;20037;-47
2021/07/29 05:28:01;;;;;;;4.72;3.03;;;27.50;50.20;;;;;;4994111;28;20022;-47
2021/07/29 05:30:26;;;;;;;6.15;3.03;;;27.50;50.10;;;;;;4976423;28;20026;-47
2021/07/29 05:32:52;;;;;;;5.20;3.10;;;27.50;50.10;;;;;;4994064;28;20031;-47
2021/07/29 05:38:02;;;;;;;4.07;2.85;;;27.60;50.20;;;;;;4994106;28;20038;-48
2021/07/29 05:40:28;;;;;;;5.05;2.60;;;27.60;50.00;;;;;;4993695;28;20038;-51
2021/07/29 05:42:53;;;;;;;4.72;2.90;;;27.60;49.90;;;;;;4994200;28;20030;-46
2021/07/29 05:45:20;;;;;;;4.95;2.65;;;27.60;49.90;;;;;;4993788;28;20054;-47
2021/07/29 05:47:45;;;;;;;5.70;2.72;;;27.70;49.80;;;;;;4994088;28;20089;-50
2021/07/29 05:50:11;;;;;;;6.38;2.95;;;27.70;49.90;;;;;;4993105;28;20027;-52
2021/07/29 05:52:37;;;;;;;3.35;2.40;;;27.70;49.70;;;;;;4993980;28;20105;-46
2021/07/29 05:55:04;;;;;;;6.43;2.35;;;27.70;49.50;;;;;;4993985;28;20059;-50
2021/07/29 05:57:29;;;;;;;3.50;2.40;;;27.70;49.50;;;;;;4993007;28;20026;-50
2021/07/29 05:59:55;;;;;;;3.88;2.70;;;27.60;49.40;;;;;;4993155;28;20042;-46
2021/07/29 06:02:21;;;;;;;5.03;2.35;;;27.60;49.60;;;;;;4993312;28;20062;-46
2021/07/29 06:04:46;;;;;;;3.10;2.17;;;27.60;49.50;;;;;;4993324;28;20109;-46
2021/07/29 06:07:12;;;;;;;4.35;2.40;;;27.60;49.30;;;;;;4992797;28;20030;-46
2021/07/29 06:09:37;;;;;;;3.70;2.40;;;27.60;49.30;;;;;;4993835;28;20505;-47
2021/07/29 06:12:03;;;;;;;3.45;2.33;;;27.60;49.20;;;;;;4993316;28;20346;-45
2021/07/29 06:14:29;;;;;;;4.85;2.58;;;27.70;49.20;;;;;;4992967;28;20473;-48
2021/07/29 06:16:55;;;;;;;3.10;2.10;;;27.70;49.00;;;;;;4993303;28;20031;-47
2021/07/29 06:19:31;;;;;;;3.70;2.22;;;27.70;48.90;;;;;;4992799;28;20029;-50
2021/07/29 06:21:57;;;;;;;6.97;2.38;;;27.70;48.90;;;;;;4993440;28;20022;-47
2021/07/29 06:24:23;;;;;;;3.85;2.20;;;27.70;48.90;;;;;;4992741;28;20117;-48
2021/07/29 06:26:49;;;;;;;5.07;2.55;;;27.80;48.80;;;;;;4992971;28;20458;-49
2021/07/29 06:29:15;;;;;;;4.32;2.60;;;27.70;48.70;;;;;;4992519;28;20137;-45
2021/07/29 06:31:40;;;;;;;3.20;2.47;;;27.80;48.80;;;;;;4993087;28;20490;-48
2021/07/29 06:34:06;;;;;;;4.03;2.10;;;27.80;48.70;;;;;;4992871;28;20105;-46
2021/07/29 06:36:32;;;;;;;6.80;2.50;;;27.90;48.70;;;;;;4992458;28;20031;-50
2021/07/29 06:38:59;;;;;;;9.10;2.90;;;27.90;48.90;;;;;;4975244;28;20027;-45
2021/07/29 06:41:25;;;;;;;4.40;2.20;;;27.90;48.90;;;;;;4974610;28;20124;-51
2021/07/29 06:43:51;;;;;;;5.78;2.55;;;28.00;48.90;;;;;;4992892;28;20059;-46
2021/07/29 06:46:17;;;;;;;4.00;2.50;;;28.00;48.80;;;;;;4992125;28;20030;-45
2021/07/29 06:48:43;;;;;;;5.47;2.50;;;28.00;48.40;;;;;;4959053;28;20058;-47
2021/07/29 06:51:09;;;;;;;6.60;2.60;;;28.10;48.40;;;;;;4991973;28;20038;-50
2021/07/29 06:53:36;;;;;;;3.25;2.38;;;28.10;48.40;;;;;;4992667;28;20069;-46
2021/07/29 06:56:05;;;;;;;5.13;2.67;;;28.20;48.30;;;;;;4992881;28;20106;-48
2021/07/29 06:58:49;;;;;;;4.45;2.47;;;28.30;48.30;;;;;;4992134;28;20058;-50
2021/07/29 07:01:15;;;;;;;8.23;2.50;;;28.50;47.80;;;;;;4974018;28;20121;-50
2021/07/29 07:03:43;;;;;;;4.10;2.40;;;28.60;47.30;;;;;;4992005;28;20212;-47
2021/07/29 07:06:09;;;;;;;4.05;2.10;;;28.80;47.20;;;;;;4991798;28;20116;-53
2021/07/29 07:08:34;;;;;;;4.40;2.50;;;28.80;46.90;;;;;;4992029;28;20038;-47
2021/07/29 07:11:00;;;;;;;4.53;2.70;;;29.00;46.70;;;;;;4991933;28;20057;-51
2021/07/29 07:13:26;;;;;;;5.22;2.50;;;29.20;46.50;;;;;;4991576;28;20022;-52
2021/07/29 07:15:53;;;;;;;4.25;2.30;;;29.40;46.30;;;;;;4991407;28;20175;-47
2021/07/29 07:18:18;;;;;;;3.92;2.42;;;29.50;46.00;;;;;;4991164;28;20516;-51
2021/07/29 07:20:44;;;;;;;3.33;2.40;;;29.60;45.80;;;;;;4991747;28;20062;-48
2021/07/29 07:23:10;;;;;;;3.33;2.55;;;29.70;45.50;;;;;;4990878;28;20053;-47
2021/07/29 07:25:36;;;;;;;6.10;2.75;;;29.80;45.30;;;;;;4974234;28;20038;-50
2021/07/29 07:28:03;;;;;;;2.80;2.10;;;29.80;45.00;;;;;;4973911;28;20031;-46
2021/07/29 07:30:29;;;;;;;4.03;2.17;;;29.90;44.80;;;;;;4990700;28;20031;-48
2021/07/29 07:32:54;;;;;;;7.07;2.28;;;29.90;44.70;;;;;;4991690;28;20509;-53
2021/07/29 07:35:20;;;;;;;4.82;2.33;;;30.00;44.40;;;;;;4973465;28;20026;-49
2021/07/29 07:37:46;;;;;;;3.28;2.03;;;30.00;44.30;;;;;;4992059;28;20029;-50
2021/07/29 07:40:12;;;;;;;6.93;2.50;;;30.00;44.20;;;;;;4990819;28;20384;-49
2021/07/29 07:42:38;;;;;;;5.10;2.30;;;29.90;44.00;;;;;;4991368;28;20026;-48
2021/07/29 07:45:04;;;;;;;3.42;1.88;;;29.90;44.10;;;;;;4991135;28;20473;-47
2021/07/29 07:47:32;;;;;;;4.13;2.45;;;29.90;44.10;;;;;;4990237;28;20405;-52
2021/07/29 07:49:58;;;;;;;5.55;2.42;;;29.90;44.10;;;;;;4973118;28;20042;-50
2021/07/29 07:52:23;;;;;;;2.90;2.10;;;29.90;44.20;;;;;;4990048;28;20122;-45
2021/07/29 07:54:49;;;;;;;4.90;2.30;;;29.80;44.10;;;;;;4991427;28;20038;-46
2021/07/29 07:57:15;;;;;;;4.22;2.35;;;29.80;44.10;;;;;;4972944;28;20046;-47
2021/07/29 07:59:41;;;;;;;3.47;2.53;;;29.80;43.90;;;;;;4990656;28;20043;-45
2021/07/29 08:02:07;;;;;;;9.05;3.13;;;29.80;44.10;;;;;;4972869;28;20026;-47
2021/07/29 08:04:33;;;;;;;3.83;2.40;;;29.80;44.10;;;;;;4990870;28;20027;-47
2021/07/29 08:06:59;;;;;;;15.88;12.52;;;29.80;43.90;;;;;;4991013;28;20414;-46
2021/07/29 08:09:25;;;;;;;16.52;11.65;;;29.80;44.10;;;;;;4989562;28;20061;-48
2021/07/29 08:11:51;;;;;;;23.55;19.48;;;29.80;43.90;;;;;;4990601;28;20066;-46
2021/07/29 08:14:17;;;;;;;21.88;18.23;;;29.70;44.10;;;;;;4989944;28;20058;-50
2021/07/29 08:16:43;;;;;;;10.50;8.95;;;29.70;44.30;;;;;;4990482;28;20026;-47
2021/07/29 08:19:09;;;;;;;14.68;12.10;;;29.70;43.80;;;;;;4989708;28;20026;-50
2021/07/29 08:21:34;;;;;;;10.23;8.50;;;29.70;43.90;;;;;;4991490;28;20362;-48
2021/07/29 08:24:00;;;;;;;12.55;8.73;;;29.70;43.80;;;;;;4995572;28;20022;-51
2021/07/29 08:26:26;;;;;;;10.63;7.35;;;29.70;43.90;;;;;;4994603;28;20193;-51
2021/07/29 08:28:52;;;;;;;9.18;5.50;;;29.70;44.00;;;;;;4995193;28;20030;-47
2021/07/29 08:31:19;;;;;;;7.78;4.75;;;29.70;43.70;;;;;;4992869;28;20042;-47
2021/07/29 08:33:45;;;;;;;11.23;4.85;;;29.70;43.50;;;;;;4977611;28;20500;-47
2021/07/29 08:36:18;;;;;;;10.13;5.68;;;29.70;43.70;;;;;;4994456;28;20034;-49
2021/07/29 08:38:44;;;;;;;;;;;29.60;43.80;;;;;;4977696;28;20078;-49
2021/07/29 08:41:11;;;;;;;8.38;4.40;;;29.70;43.90;;;;;;4977490;28;19914;-51
2021/07/29 08:43:37;;;;;;;6.18;3.80;;;29.60;43.90;;;;;;4994850;28;20461;-52
2021/07/29 08:46:04;;;;;;;8.13;4.00;;;29.60;44.00;;;;;;4995219;28;20030;-47
2021/07/29 08:48:33;;;;;;;5.22;3.70;;;29.60;44.10;;;;;;4994620;28;20049;-48
2021/07/29 08:50:59;;;;;;;8.95;3.25;;;29.60;44.30;;;;;;4995167;28;20058;-49
2021/07/29 08:53:25;;;;;;;7.15;3.35;;;29.60;44.10;;;;;;4994292;28;20027;-49
2021/07/29 08:55:55;;;;;;;6.97;3.53;;;29.60;44.10;;;;;;4994301;28;20489;-49
2021/07/29 08:58:21;;;;;;;6.25;3.38;;;29.60;44.20;;;;;;4976805;28;20027;-47
2021/07/29 09:01:11;;;;;;;6.20;3.30;;;29.60;44.30;;;;;;4976460;28;20035;-48
2021/07/29 09:03:38;;;;;;;5.72;3.38;;;29.60;44.20;;;;;;4976590;28;20057;-47
2021/07/29 09:06:08;;;;;;;6.10;3.00;;;29.70;44.00;;;;;;4994634;28;20050;-50
2021/07/29 09:08:43;;;;;;;5.50;3.10;;;29.70;43.90;;;;;;4976434;28;20050;-50
2021/07/29 09:11:25;;;;;;;5.35;3.20;;;29.60;43.80;;;;;;4994411;28;20177;-46
2021/07/29 09:14:18;;;;;;;4.05;3.13;;;29.60;43.60;;;;;;4994396;28;20026;-49
2021/07/29 09:17:09;;;;;;;6.27;3.60;;;29.70;43.60;;;;;;4994153;28;20588;-47
2021/07/29 09:19:41;;;;;;;8.77;5.78;;;29.70;43.80;;;;;;4993474;28;20258;-47
2021/07/29 09:22:10;;;;;;;18.27;9.48;;;29.70;43.70;;;;;;4976151;28;20026;-47
2021/07/29 09:25:03;;;;;;;10.70;7.85;;;29.70;43.70;;;;;;4993035;28;20134;-49
2021/07/29 09:27:37;;;;;;;9.43;7.50;;;29.70;43.60;;;;;;4992385;28;20030;-50
2021/07/29 09:30:17;;;;;;;7.47;6.43;;;29.70;43.80;;;;;;4975775;28;20405;-48
2021/07/29 09:33:03;;;;;;;11.00;6.10;;;29.70;43.90;;;;;;4974822;28;20453;-48
2021/07/29 09:35:31;;;;;;;6.82;4.13;;;29.70;43.50;;;;;;4993535;28;20030;-51
2021/07/29 09:37:58;;;;;;;5.97;3.67;;;29.80;43.60;;;;;;4993763;28;20131;-49
2021/07/29 09:40:24;;;;;;;6.60;4.90;;;29.70;43.00;;;;;;4992714;28;20038;-51
2021/07/29 09:43:12;;;;;;;5.95;4.03;;;29.70;43.30;;;;;;4993448;28;20048;-45
2021/07/29 09:45:38;;;;;;;5.05;4.00;;;29.70;43.40;;;;;;4993015;28;20022;-49
2021/07/29 09:48:06;;;;;;;6.45;3.97;;;29.70;43.30;;;;;;4993398;28;20030;-49
2021/07/29 09:50:36;;;;;;;4.65;3.47;;;29.70;43.40;;;;;;4974230;28;20326;-48
2021/07/29 09:53:03;;;;;;;5.35;3.10;;;29.70;43.20;;;;;;4975770;28;20478;-47
2021/07/29 09:55:30;;;;;;;5.40;3.42;;;29.80;43.20;;;;;;4975008;28;20030;-47
2021/07/29 09:57:56;;;;;;;4.72;3.40;;;29.80;43.20;;;;;;4992472;28;20022;-45
2021/07/29 10:00:22;;;;;;;4.60;3.50;;;29.80;43.50;;;;;;4992058;28;20485;-51
2021/07/29 10:02:49;;;;;;;4.45;3.58;;;29.80;43.50;;;;;;4993051;28;20026;-48
2021/07/29 10:05:16;;;;;;;4.75;2.97;;;29.80;43.50;;;;;;4992568;28;20046;-47
2021/07/29 10:07:47;;;;;;;5.78;3.05;;;29.80;43.40;;;;;;4993201;28;20026;-51
2021/07/29 10:10:19;;;;;;;4.43;2.72;;;29.80;43.40;;;;;;4965408;28;20034;-49
2021/07/29 10:12:48;;;;;;;4.10;3.30;;;29.80;43.40;;;;;;4989471;28;20027;-44
2021/07/29 10:15:41;;;;;;;4.65;3.20;;;29.90;43.40;;;;;;4989116;28;20441;-50
2021/07/29 10:18:09;;;;;;;4.07;3.17;;;29.80;43.00;;;;;;4990345;28;20026;-51
2021/07/29 10:20:36;;;;;;;4.15;3.33;;;29.90;42.30;;;;;;4971242;28;20075;-51
2021/07/29 10:23:13;;;;;;;5.78;3.50;;;29.90;42.90;;;;;;4972643;28;20444;-46
2021/07/29 10:26:02;;;;;;;4.60;3.78;;;29.80;42.50;;;;;;4991389;28;20033;-47
2021/07/29 10:28:35;;;;;;;6.07;3.75;;;29.80;42.80;;;;;;4992095;28;20026;-52
2021/07/29 10:31:02;;;;;;;6.10;3.63;;;29.90;42.90;;;;;;4992450;28;20363;-49
2021/07/29 10:33:28;;;;;;;7.40;3.35;;;29.90;42.90;;;;;;4974526;28;20030;-52
2021/07/29 10:35:55;;;;;;;4.70;3.25;;;29.90;41.80;;;;;;4992924;28;20018;-50
2021/07/29 10:38:38;;;;;;;4.72;3.78;;;29.90;41.90;;;;;;4991251;28;20026;-51
2021/07/29 10:41:10;;;;;;;12.55;8.75;;;29.90;42.20;;;;;;4990633;28;20039;-48
2021/07/29 10:43:39;;;;;;;12.75;9.30;;;29.90;42.10;;;;;;4972660;28;20477;-44
2021/07/29 10:46:05;;;;;;;10.98;7.88;;;29.90;42.40;;;;;;4991633;28;20548;-46
2021/07/29 10:49:12;;;;;;;11.23;7.65;;;29.90;42.00;;;;;;4973366;28;20410;-49
2021/07/29 10:51:58;;;;;;;8.57;6.50;;;29.90;42.40;;;;;;4972768;28;20034;-48
2021/07/29 10:54:25;;;;;;;9.30;5.60;;;30.00;42.50;;;;;;4989983;28;20026;-44
2021/07/29 10:56:51;;;;;;;8.05;5.25;;;30.00;42.20;;;;;;4990176;28;20058;-45
2021/07/29 10:59:18;;;;;;;8.18;5.40;;;30.00;42.10;;;;;;4990901;28;20122;-48
2021/07/29 11:01:46;;;;;;;5.65;4.30;;;30.00;41.60;;;;;;4973274;28;20387;-48
2021/07/29 11:04:13;;;;;;;6.40;5.20;;;30.00;42.00;;;;;;4973839;28;20188;-50
2021/07/29 11:06:44;;;;;;;5.95;4.05;;;30.00;42.20;;;;;;4991011;28;20133;-45
2021/07/29 11:09:14;;;;;;;5.22;4.35;;;30.10;41.10;;;;;;4990962;28;20026;-48
2021/07/29 11:11:42;;;;;;;8.88;4.25;;;30.00;41.30;;;;;;4990868;28;20049;-50
2021/07/29 11:14:08;;;;;;;6.18;4.25;;;30.00;40.90;;;;;;4974441;28;20026;-50
2021/07/29 11:16:34;;;;;;;4.97;4.05;;;30.00;40.20;;;;;;4973449;28;20029;-53
2021/07/29 11:19:02;;;;;;;5.53;4.40;;;30.00;40.80;;;;;;4974125;28;20089;-50
2021/07/29 11:21:28;;;;;;;5.00;3.70;;;30.00;40.90;;;;;;4973691;28;20106;-47
2021/07/29 11:23:54;;;;;;;4.13;3.72;;;30.00;40.80;;;;;;4991859;28;20023;-49
2021/07/29 11:26:20;;;;;;;7.22;4.07;;;30.00;40.50;;;;;;4990983;28;20111;-48
2021/07/29 11:29:08;;;;;;;8.25;3.88;;;30.00;40.60;;;;;;4991163;28;20027;-50
2021/07/29 11:31:35;;;;;;;7.82;3.80;;;30.00;41.00;;;;;;4990999;28;20064;-49
2021/07/29 11:34:02;;;;;;;6.00;3.80;;;30.00;40.50;;;;;;4990834;28;20106;-52
2021/07/29 11:36:30;;;;;;;6.03;3.60;;;30.10;40.80;;;;;;4990466;28;20034;-48
2021/07/29 11:39:07;;;;;;;5.28;3.53;;;30.00;40.80;;;;;;4973723;28;20484;-52
2021/07/29 11:41:51;;;;;;;6.00;3.80;;;30.00;39.90;;;;;;4986901;28;20046;-50
2021/07/29 11:44:17;;;;;;;6.00;4.20;;;30.00;40.60;;;;;;4991044;28;20026;-48
2021/07/29 11:46:57;;;;;;;9.75;4.82;;;30.10;40.50;;;;;;4990003;28;20084;-50
2021/07/29 11:49:23;;;;;;;16.42;5.32;;;30.00;40.50;;;;;;4990745;28;20026;-50
2021/07/29 11:52:10;;;;;;;13.25;5.88;;;30.10;40.30;;;;;;4990483;28;20105;-46
2021/07/29 11:54:37;;;;;;;15.75;6.43;;;30.00;40.70;;;;;;4990205;28;20022;-49
2021/07/29 11:57:03;;;;;;;9.82;6.20;;;30.10;40.90;;;;;;4972948;28;20441;-50
2021/07/29 11:59:40;;;;;;;6.30;4.55;;;30.10;40.50;;;;;;4973065;28;20065;-49
2021/07/29 12:02:08;;;;;;;6.40;4.15;;;30.10;40.10;;;;;;4990914;28;20058;-48
2021/07/29 12:04:38;;;;;;;7.70;4.43;;;30.10;40.20;;;;;;4972135;28;20026;-47
2021/07/29 12:07:05;;;;;;;8.05;4.00;;;30.10;40.10;;;;;;4957321;28;20093;-46
2021/07/29 12:09:34;;;;;;;6.63;4.10;;;30.10;39.20;;;;;;4972403;28;20496;-53
2021/07/29 12:12:03;;;;;;;4.75;4.00;;;30.10;39.30;;;;;;4973409;28;20468;-50
2021/07/29 12:14:29;;;;;;;5.13;4.28;;;30.00;39.30;;;;;;4990077;28;20037;-50
2021/07/29 12:16:55;;;;;;;6.50;4.57;;;30.10;39.70;;;;;;4990563;28;20026;-49
2021/07/29 12:19:22;;;;;;;4.75;4.07;;;30.10;39.90;;;;;;4990473;28;20062;-51
2021/07/29 12:21:50;;;;;;;10.07;4.82;;;30.20;39.60;;;;;;4989757;28;20037;-46
2021/07/29 12:24:17;;;;;;;14.65;5.00;;;30.20;39.30;;;;;;4988981;28;20030;-47
2021/07/29 12:27:08;;;;;;;10.52;4.28;;;30.20;39.40;;;;;;4989327;28;20033;-48
2021/07/29 12:29:42;;;;;;;9.32;4.60;;;30.10;38.70;;;;;;4989693;28;20073;-49
2021/07/29 12:32:22;;;;;;;6.15;4.10;;;30.10;38.60;;;;;;4970747;28;20041;-50
2021/07/29 12:34:49;;;;;;;5.60;3.92;;;30.20;39.40;;;;;;4990011;28;20457;-46
2021/07/29 12:37:36;;;;;;;5.07;3.65;;;30.20;39.10;;;;;;4989878;28;20030;-48
2021/07/29 12:40:04;;;;;;;6.20;3.95;;;30.20;39.10;;;;;;4972293;28;20254;-49
2021/07/29 12:42:32;;;;;;;6.75;4.13;;;30.20;39.40;;;;;;4989431;28;20458;-48
2021/07/29 12:45:05;;;;;;;5.85;3.88;;;30.20;39.50;;;;;;4972806;28;20030;-47
2021/07/29 12:47:31;;;;;;;4.80;3.40;;;30.20;39.20;;;;;;4990026;28;20027;-48
2021/07/29 12:49:57;;;;;;;5.07;3.80;;;30.30;39.30;;;;;;4990740;28;20121;-50
2021/07/29 12:52:25;;;;;;;4.78;3.63;;;30.30;39.10;;;;;;4990537;28;20037;-48
2021/07/29 12:55:01;;;;;;;6.38;3.67;;;30.30;39.50;;;;;;4990274;28;20065;-49